Time,TemperatureF,DewpointF,PressureIn,WindDirection,WindDirectionDegrees,WindSpeedMPH,WindSpeedGustMPH,Humidity,HourlyPrecipIn,Conditions,Clouds,dailyrainin,SoftwareType,DateUTC
2013-11-12 00:00:00,28.2,20.4,30.38,North,3,10.0,32.0,72,0.00,,---,0.31,VWS V14.01,2013-11-12 05:00:00,
2013-11-12 00:01:00,28.4,20.5,30.37,NNE,18,10.0,15.0,72,0.00,,---,0.00,VWS V14.01,2013-11-12 05:01:00,
2013-11-12 00:02:00,28.4,20.2,30.37,North,356,11.0,17.0,71,0.00,,---,0.00,VWS V14.01,2013-11-12 05:02:00,
2013-11-12 00:07:00,28.4,19.9,30.38,NNW,342,24.0,24.0,70,0.00,,---,0.00,VWS V14.01,2013-11-12 05:07:00,
2013-11-12 00:12:00,28.7,20.2,30.38,North,10,10.0,25.0,70,0.00,,---,0.00,VWS V14.01,2013-11-12 05:12:00,
2013-11-12 00:17:00,28.4,19.9,30.38,NW,319,12.0,25.0,70,0.00,,---,0.00,VWS V14.01,2013-11-12 05:17:00,
2013-11-12 00:22:00,28.2,19.4,30.39,NNE,12,11.0,25.0,69,0.00,,---,0.00,VWS V14.01,2013-11-12 05:22:00,
2013-11-12 00:27:00,28.1,19.3,30.39,NNW,344,11.0,25.0,69,0.00,,---,0.00,VWS V14.01,2013-11-12 05:27:00,
2013-11-12 00:30:00,28.1,19.3,30.39,North,358,16.0,25.0,69,0.00,,---,0.00,VWS V14.01,2013-11-12 05:30:00,
2013-11-12 00:32:00,28.1,19.6,30.39,NNE,16,12.0,18.0,70,0.00,,---,0.00,VWS V14.01,2013-11-12 05:32:00,
2013-11-12 00:37:00,28.0,19.8,30.39,NNE,24,11.0,23.0,71,0.00,,---,0.00,VWS V14.01,2013-11-12 05:37:00,
2013-11-12 00:42:00,27.8,19.6,30.39,North,353,9.0,23.0,71,0.00,,---,0.00,VWS V14.01,2013-11-12 05:42:00,
2013-11-12 00:47:00,27.8,19.6,30.40,North,8,8.0,23.0,71,0.00,,---,0.00,VWS V14.01,2013-11-12 05:47:00,
2013-11-12 00:52:00,27.8,20.0,30.40,North,1,5.0,23.0,72,0.00,,---,0.00,VWS V14.01,2013-11-12 05:52:00,
2013-11-12 00:57:00,27.8,20.0,30.40,NNE,18,15.0,23.0,72,0.00,,---,0.00,VWS V14.01,2013-11-12 05:57:00,
2013-11-12 01:00:00,28.0,20.2,30.40,NNE,22,11.0,23.0,72,0.00,,---,0.00,VWS V14.01,2013-11-12 06:00:00,
2013-11-12 01:02:00,28.1,20.2,30.40,North,3,5.0,15.0,72,0.00,,---,0.00,VWS V14.01,2013-11-12 06:02:00,
2013-11-12 01:07:00,28.2,20.4,30.40,North,5,12.0,15.0,72,0.00,,---,0.00,VWS V14.01,2013-11-12 06:07:00,
2013-11-12 01:13:00,28.4,20.5,30.40,North,9,16.0,16.0,72,0.00,,---,0.00,VWS V14.01,2013-11-12 06:13:00,
2013-11-12 01:18:00,28.5,21.0,30.40,North,354,11.0,20.0,73,0.00,,---,0.00,VWS V14.01,2013-11-12 06:18:00,
2013-11-12 01:23:00,28.7,20.8,30.40,NNW,346,12.0,20.0,72,0.00,,---,0.00,VWS V14.01,2013-11-12 06:23:00,
2013-11-12 01:28:00,28.8,20.6,30.40,North,5,7.0,20.0,71,0.00,,---,0.00,VWS V14.01,2013-11-12 06:28:00,
2013-11-12 01:30:00,28.8,20.6,30.40,North,356,8.0,20.0,71,0.00,,---,0.00,VWS V14.01,2013-11-12 06:30:00,
2013-11-12 01:33:00,28.9,21.0,30.40,NNE,18,14.0,16.0,72,0.00,,---,0.00,VWS V14.01,2013-11-12 06:33:00,
2013-11-12 01:38:00,28.8,20.9,30.41,NNE,20,13.0,17.0,72,0.00,,---,0.00,VWS V14.01,2013-11-12 06:38:00,
2013-11-12 01:43:00,28.8,20.6,30.41,NNW,337,7.0,20.0,71,0.00,,---,0.00,VWS V14.01,2013-11-12 06:43:00,
2013-11-12 01:48:00,28.8,20.6,30.41,North,5,10.0,20.0,71,0.00,,---,0.00,VWS V14.01,2013-11-12 06:48:00,
2013-11-12 01:53:00,28.8,20.6,30.41,North,356,11.0,20.0,71,0.00,,---,0.00,VWS V14.01,2013-11-12 06:53:00,
2013-11-12 01:58:00,28.7,20.5,30.41,North,5,8.0,20.0,71,0.00,,---,0.00,VWS V14.01,2013-11-12 06:58:00,
2013-11-12 02:00:00,28.7,20.5,30.41,NNE,15,15.0,20.0,71,0.00,,---,0.00,VWS V14.01,2013-11-12 07:00:00,
2013-11-12 02:03:00,28.7,21.1,30.41,North,11,11.0,15.0,73,0.00,,---,0.00,VWS V14.01,2013-11-12 07:03:00,
2013-11-12 02:08:00,28.7,21.1,30.41,North,357,7.0,15.0,73,0.00,,---,0.00,VWS V14.01,2013-11-12 07:08:00,
2013-11-12 02:13:00,28.7,21.5,30.41,North,7,8.0,15.0,74,0.00,,---,0.00,VWS V14.01,2013-11-12 07:13:00,
2013-11-12 02:18:00,28.7,21.1,30.41,NNE,20,6.0,15.0,73,0.00,,---,0.00,VWS V14.01,2013-11-12 07:18:00,
2013-11-12 02:23:00,28.8,21.2,30.41,NNW,330,6.0,17.0,73,0.00,,---,0.00,VWS V14.01,2013-11-12 07:23:00,
2013-11-12 02:28:00,29.0,20.8,30.42,North,10,10.0,17.0,71,0.00,,---,0.00,VWS V14.01,2013-11-12 07:28:00,
2013-11-12 02:30:00,29.0,20.8,30.42,North,1,5.0,17.0,71,0.00,,---,0.00,VWS V14.01,2013-11-12 07:30:00,
2013-11-12 02:33:00,29.1,21.9,30.42,NNW,343,21.0,22.0,74,0.00,,---,0.00,VWS V14.01,2013-11-12 07:33:00,
2013-11-12 02:38:00,28.7,23.3,30.43,NNW,334,14.0,22.0,80,0.00,,---,0.00,VWS V14.01,2013-11-12 07:38:00,
2013-11-12 02:43:00,27.9,23.1,30.42,NNE,20,5.0,26.0,82,0.00,,---,0.00,VWS V14.01,2013-11-12 07:43:00,
2013-11-12 02:48:00,27.8,23.0,30.42,NNE,24,9.0,26.0,82,0.00,,---,0.00,VWS V14.01,2013-11-12 07:48:00,
2013-11-12 02:53:00,27.8,22.7,30.42,North,5,11.0,27.0,81,0.00,,---,0.00,VWS V14.01,2013-11-12 07:53:00,
2013-11-12 02:58:00,27.7,22.9,30.42,NNE,19,14.0,27.0,82,0.00,,---,0.00,VWS V14.01,2013-11-12 07:58:00,
2013-11-12 03:00:00,27.5,23.0,30.43,NNE,12,7.0,27.0,83,0.00,,---,0.00,VWS V14.01,2013-11-12 08:00:00,
2013-11-12 03:03:00,27.4,22.9,30.43,North,358,9.0,14.0,83,0.00,,---,0.00,VWS V14.01,2013-11-12 08:03:00,
2013-11-12 03:08:00,27.8,23.3,30.42,NW,323,2.0,14.0,83,0.00,,---,0.00,VWS V14.01,2013-11-12 08:08:00,
2013-11-12 03:13:00,28.2,22.8,30.43,North,352,4.0,14.0,80,0.00,,---,0.00,VWS V14.01,2013-11-12 08:13:00,
2013-11-12 03:19:00,28.7,22.4,30.44,North,350,6.0,14.0,77,0.00,,---,0.00,VWS V14.01,2013-11-12 08:19:00,
2013-11-12 03:24:00,28.8,22.2,30.43,NNW,341,13.0,19.0,76,0.00,,---,0.00,VWS V14.01,2013-11-12 08:24:00,
2013-11-12 03:29:00,28.7,23.0,30.43,NNW,335,14.0,19.0,79,0.00,,---,0.00,VWS V14.01,2013-11-12 08:29:00,
2013-11-12 03:30:00,28.7,23.0,30.44,North,7,6.0,19.0,79,0.00,,---,0.00,VWS V14.01,2013-11-12 08:30:00,
2013-11-12 03:34:00,28.8,23.1,30.44,NNW,344,8.0,12.0,79,0.00,,---,0.00,VWS V14.01,2013-11-12 08:34:00,
2013-11-12 03:39:00,28.8,22.8,30.43,North,350,6.0,21.0,78,0.00,,---,0.00,VWS V14.01,2013-11-12 08:39:00,
2013-11-12 03:44:00,29.0,23.3,30.44,NNW,347,11.0,21.0,79,0.00,,---,0.00,VWS V14.01,2013-11-12 08:44:00,
2013-11-12 03:49:00,29.1,22.8,30.44,North,356,10.0,21.0,77,0.00,,---,0.00,VWS V14.01,2013-11-12 08:49:00,
2013-11-12 03:54:00,29.3,22.7,30.44,North,356,11.0,21.0,76,0.00,,---,0.00,VWS V14.01,2013-11-12 08:54:00,
2013-11-12 03:59:00,29.3,22.1,30.44,NNW,343,8.0,21.0,74,0.00,,---,0.00,VWS V14.01,2013-11-12 08:59:00,
2013-11-12 04:00:00,29.3,22.1,30.44,NNE,22,9.0,21.0,74,0.00,,---,0.00,VWS V14.01,2013-11-12 09:00:00,
2013-11-12 04:04:00,29.4,21.5,30.44,NNW,331,7.0,20.0,72,0.00,,---,0.00,VWS V14.01,2013-11-12 09:04:00,
2013-11-12 04:09:00,29.4,21.2,30.45,NNW,337,11.0,23.0,71,0.00,,---,0.00,VWS V14.01,2013-11-12 09:09:00,
2013-11-12 04:14:00,29.4,20.8,30.45,NNW,341,11.0,23.0,70,0.00,,---,0.00,VWS V14.01,2013-11-12 09:14:00,
2013-11-12 04:19:00,29.4,20.8,30.45,NNE,28,9.0,23.0,70,0.00,,---,0.00,VWS V14.01,2013-11-12 09:19:00,
2013-11-12 04:24:00,29.3,20.4,30.46,NW,316,10.0,23.0,69,0.00,,---,0.00,VWS V14.01,2013-11-12 09:24:00,
2013-11-12 04:29:00,29.3,20.4,30.46,NNW,347,12.0,23.0,69,0.00,,---,0.00,VWS V14.01,2013-11-12 09:29:00,
2013-11-12 04:30:00,29.3,20.1,30.46,NNE,22,8.0,23.0,68,0.00,,---,0.00,VWS V14.01,2013-11-12 09:30:00,
2013-11-12 04:34:00,29.1,19.5,30.47,North,356,19.0,21.0,67,0.00,,---,0.00,VWS V14.01,2013-11-12 09:34:00,
2013-11-12 04:39:00,29.0,19.4,30.47,North,350,6.0,21.0,67,0.00,,---,0.00,VWS V14.01,2013-11-12 09:39:00,
2013-11-12 04:44:00,28.8,18.9,30.47,North,355,4.0,21.0,66,0.00,,---,0.00,VWS V14.01,2013-11-12 09:44:00,
2013-11-12 04:49:00,28.7,18.8,30.47,North,351,9.0,21.0,66,0.00,,---,0.00,VWS V14.01,2013-11-12 09:49:00,
2013-11-12 04:54:00,28.6,18.7,30.47,NNW,331,13.0,22.0,66,0.00,,---,0.00,VWS V14.01,2013-11-12 09:54:00,
2013-11-12 04:59:00,28.4,18.5,30.48,NNW,345,6.0,22.0,66,0.00,,---,0.00,VWS V14.01,2013-11-12 09:59:00,
2013-11-12 05:00:00,28.4,18.1,30.48,NNE,27,16.0,22.0,65,0.00,,---,0.00,VWS V14.01,2013-11-12 10:00:00,
2013-11-12 05:04:00,28.2,18.0,30.47,NNW,348,10.0,23.0,65,0.00,,---,0.00,VWS V14.01,2013-11-12 10:04:00,
2013-11-12 05:09:00,28.1,17.5,30.48,NNW,334,12.0,23.0,64,0.00,,---,0.00,VWS V14.01,2013-11-12 10:09:00,
2013-11-12 05:14:00,28.1,17.9,30.48,North,351,17.0,23.0,65,0.00,,---,0.00,VWS V14.01,2013-11-12 10:14:00,
2013-11-12 05:19:00,28.1,18.6,30.48,NNW,331,13.0,23.0,67,0.00,,---,0.00,VWS V14.01,2013-11-12 10:19:00,
2013-11-12 05:24:00,28.1,18.2,30.48,NNW,344,13.0,23.0,66,0.00,,---,0.00,VWS V14.01,2013-11-12 10:24:00,
2013-11-12 05:29:00,28.0,18.5,30.48,NW,321,9.0,23.0,67,0.00,,---,0.00,VWS V14.01,2013-11-12 10:29:00,
2013-11-12 05:30:00,27.9,18.4,30.48,North,350,12.0,23.0,67,0.00,,---,0.00,VWS V14.01,2013-11-12 10:30:00,
2013-11-12 05:34:00,27.9,18.4,30.48,NNW,329,6.0,21.0,67,0.00,,---,0.00,VWS V14.01,2013-11-12 10:34:00,
2013-11-12 05:39:00,27.8,18.3,30.48,NW,321,11.0,21.0,67,0.00,,---,0.00,VWS V14.01,2013-11-12 10:39:00,
2013-11-12 05:44:00,27.7,17.8,30.49,NNW,345,18.0,22.0,66,0.00,,---,0.00,VWS V14.01,2013-11-12 10:44:00,
2013-11-12 05:49:00,27.5,17.3,30.48,NNW,336,7.0,22.0,65,0.00,,---,0.00,VWS V14.01,2013-11-12 10:49:00,
2013-11-12 05:54:00,27.7,17.8,30.49,NNW,344,16.0,22.0,66,0.00,,---,0.00,VWS V14.01,2013-11-12 10:54:00,
2013-11-12 05:59:00,27.7,17.5,30.49,NNW,333,7.0,22.0,65,0.00,,---,0.00,VWS V14.01,2013-11-12 10:59:00,
2013-11-12 06:00:00,27.6,17.4,30.49,NW,309,5.0,22.0,65,0.00,,---,0.00,VWS V14.01,2013-11-12 11:00:00,
2013-11-12 06:04:00,27.6,17.7,30.49,NNW,333,7.0,17.0,66,0.00,,---,0.00,VWS V14.01,2013-11-12 11:04:00,
2013-11-12 06:09:00,27.5,17.6,30.49,NNE,19,14.0,17.0,66,0.00,,---,0.00,VWS V14.01,2013-11-12 11:09:00,
2013-11-12 06:14:00,27.5,17.3,30.49,NNW,337,10.0,17.0,65,0.00,,---,0.00,VWS V14.01,2013-11-12 11:14:00,
2013-11-12 06:19:00,27.5,17.3,30.50,North,11,15.0,17.0,65,0.00,,---,0.00,VWS V14.01,2013-11-12 11:19:00,
2013-11-12 06:24:00,27.5,17.3,30.49,NNE,12,10.0,19.0,65,0.00,,---,0.00,VWS V14.01,2013-11-12 11:24:00,
2013-11-12 06:29:00,27.6,17.7,30.50,NW,320,6.0,19.0,66,0.00,,---,0.00,VWS V14.01,2013-11-12 11:29:00,
2013-11-12 06:30:00,27.6,17.7,30.49,NNW,329,10.0,19.0,66,0.00,,---,0.00,VWS V14.01,2013-11-12 11:30:00,
2013-11-12 06:34:00,27.6,17.0,30.49,NNW,338,5.0,16.0,64,0.00,,---,0.00,VWS V14.01,2013-11-12 11:34:00,
2013-11-12 06:39:00,27.5,16.9,30.50,North,353,9.0,16.0,64,0.00,,---,0.00,VWS V14.01,2013-11-12 11:39:00,
2013-11-12 06:44:00,27.5,16.6,30.50,NW,322,9.0,19.0,63,0.00,,---,0.00,VWS V14.01,2013-11-12 11:44:00,
2013-11-12 06:49:00,27.5,16.6,30.49,North,7,11.0,19.0,63,0.00,,---,0.00,VWS V14.01,2013-11-12 11:49:00,
2013-11-12 06:54:00,27.5,16.6,30.50,WNW,302,8.0,19.0,63,0.00,,---,0.00,VWS V14.01,2013-11-12 11:54:00,
2013-11-12 06:59:00,27.4,16.1,30.50,NNW,330,10.0,19.0,62,0.00,,---,0.00,VWS V14.01,2013-11-12 11:59:00,
2013-11-12 07:00:00,27.4,16.1,30.50,North,349,9.0,19.0,62,0.00,,---,0.00,VWS V14.01,2013-11-12 12:00:00,
2013-11-12 07:04:00,27.3,16.0,30.50,NNW,342,8.0,14.0,62,0.00,,---,0.00,VWS V14.01,2013-11-12 12:04:00,
2013-11-12 07:09:00,27.4,16.1,30.50,NNW,327,7.0,22.0,62,0.00,,---,0.00,VWS V14.01,2013-11-12 12:09:00,
2013-11-12 07:14:00,27.4,16.5,30.50,North,359,7.0,22.0,63,0.00,,---,0.00,VWS V14.01,2013-11-12 12:14:00,
2013-11-12 07:19:00,27.4,16.5,30.50,North,352,8.0,22.0,63,0.00,,---,0.00,VWS V14.01,2013-11-12 12:19:00,
2013-11-12 07:24:00,27.4,16.5,30.50,NNW,332,6.0,22.0,63,0.00,,---,0.00,VWS V14.01,2013-11-12 12:24:00,
2013-11-12 07:29:00,27.4,16.1,30.50,North,7,11.0,22.0,62,0.00,,---,0.00,VWS V14.01,2013-11-12 12:29:00,
2013-11-12 07:30:00,27.3,16.0,30.50,NNW,336,12.0,22.0,62,0.00,,---,0.00,VWS V14.01,2013-11-12 12:30:00,
2013-11-12 07:34:00,27.4,15.7,30.51,NNW,334,8.0,20.0,61,0.00,,---,0.00,VWS V14.01,2013-11-12 12:34:00,
2013-11-12 07:40:00,27.3,16.0,30.50,North,349,9.0,20.0,62,0.00,,---,0.00,VWS V14.01,2013-11-12 12:40:00,
2013-11-12 07:45:00,27.5,16.6,30.51,NNW,342,10.0,20.0,63,0.00,,---,0.00,VWS V14.01,2013-11-12 12:45:00,
2013-11-12 07:50:00,27.4,16.1,30.51,North,352,12.0,20.0,62,0.00,,---,0.00,VWS V14.01,2013-11-12 12:50:00,
2013-11-12 07:55:00,27.5,16.6,30.51,NNW,338,11.0,20.0,63,0.00,,---,0.00,VWS V14.01,2013-11-12 12:55:00,
2013-11-12 08:00:00,27.5,16.9,30.51,North,353,18.0,18.0,64,0.00,,---,0.00,VWS V14.01,2013-11-12 13:00:00,
2013-11-12 08:05:00,27.5,16.2,30.52,NW,321,9.0,20.0,62,0.00,,---,0.00,VWS V14.01,2013-11-12 13:05:00,
2013-11-12 08:10:00,27.4,16.1,30.52,NNW,329,7.0,25.0,62,0.00,,---,0.00,VWS V14.01,2013-11-12 13:10:00,
2013-11-12 08:15:00,27.4,15.7,30.52,North,351,11.0,25.0,61,0.00,,---,0.00,VWS V14.01,2013-11-12 13:15:00,
2013-11-12 08:20:00,27.5,16.6,30.51,North,350,15.0,25.0,63,0.00,,---,0.00,VWS V14.01,2013-11-12 13:20:00,
2013-11-12 08:25:00,27.5,16.2,30.52,North,358,9.0,25.0,62,0.00,,---,0.00,VWS V14.01,2013-11-12 13:25:00,
2013-11-12 08:30:00,27.6,16.3,30.52,NNW,348,13.0,17.0,62,0.00,,---,0.00,VWS V14.01,2013-11-12 13:30:00,
2013-11-12 08:35:00,27.5,15.8,30.52,North,355,13.0,21.0,61,0.00,,---,0.00,VWS V14.01,2013-11-12 13:35:00,
2013-11-12 08:40:00,27.5,16.2,30.52,North,350,16.0,22.0,62,0.00,,---,0.00,VWS V14.01,2013-11-12 13:40:00,
2013-11-12 08:45:00,27.5,16.6,30.52,NNW,330,18.0,25.0,63,0.00,,---,0.00,VWS V14.01,2013-11-12 13:45:00,
2013-11-12 08:50:00,27.5,15.8,30.52,North,359,7.0,25.0,61,0.00,,---,0.00,VWS V14.01,2013-11-12 13:50:00,
2013-11-12 08:55:00,27.5,15.8,30.52,North,356,10.0,25.0,61,0.00,,---,0.00,VWS V14.01,2013-11-12 13:55:00,
2013-11-12 09:00:00,27.6,16.3,30.53,NNW,334,9.0,13.0,62,0.00,,---,0.00,VWS V14.01,2013-11-12 14:00:00,
2013-11-12 09:05:00,27.7,16.0,30.53,North,7,15.0,21.0,61,0.00,,---,0.00,VWS V14.01,2013-11-12 14:05:00,
2013-11-12 09:10:00,27.7,16.0,30.53,NNE,16,14.0,22.0,61,0.00,,---,0.00,VWS V14.01,2013-11-12 14:10:00,
2013-11-12 09:15:00,27.8,16.5,30.53,NNE,19,10.0,22.0,62,0.00,,---,0.00,VWS V14.01,2013-11-12 14:15:00,
2013-11-12 09:20:00,27.7,16.0,30.53,North,357,10.0,22.0,61,0.00,,---,0.00,VWS V14.01,2013-11-12 14:20:00,
2013-11-12 09:25:00,27.8,16.5,30.53,NNW,343,15.0,22.0,62,0.00,,---,0.00,VWS V14.01,2013-11-12 14:25:00,
2013-11-12 09:30:00,27.6,16.3,30.53,NNE,15,15.0,19.0,62,0.00,,---,0.00,VWS V14.01,2013-11-12 14:30:00,
2013-11-12 09:35:00,27.8,16.1,30.53,North,356,7.0,19.0,61,0.00,,---,0.00,VWS V14.01,2013-11-12 14:35:00,
2013-11-12 09:40:00,27.8,16.5,30.53,NNW,345,19.0,20.0,62,0.00,,---,0.00,VWS V14.01,2013-11-12 14:40:00,
2013-11-12 09:45:00,27.7,16.4,30.53,North,353,15.0,20.0,62,0.00,,---,0.00,VWS V14.01,2013-11-12 14:45:00,
2013-11-12 09:50:00,27.6,16.7,30.53,NW,318,10.0,20.0,63,0.00,,---,0.00,VWS V14.01,2013-11-12 14:50:00,
2013-11-12 09:55:00,27.4,16.1,30.53,NNE,19,4.0,21.0,62,0.00,,---,0.00,VWS V14.01,2013-11-12 14:55:00,
2013-11-12 10:00:00,27.5,16.9,30.54,NNW,335,13.0,18.0,64,0.00,,---,0.00,VWS V14.01,2013-11-12 15:00:00,
2013-11-12 10:05:00,27.5,16.6,30.53,North,356,15.0,18.0,63,0.00,,---,0.00,VWS V14.01,2013-11-12 15:05:00,
2013-11-12 10:11:00,27.5,16.6,30.54,NNW,338,11.0,21.0,63,0.00,,---,0.00,VWS V14.01,2013-11-12 15:11:00,
2013-11-12 10:16:00,27.5,16.9,30.54,NW,323,7.0,21.0,64,0.00,,---,0.00,VWS V14.01,2013-11-12 15:16:00,
2013-11-12 10:21:00,27.5,16.9,30.54,NNW,348,11.0,21.0,64,0.00,,---,0.00,VWS V14.01,2013-11-12 15:21:00,
2013-11-12 10:26:00,27.5,17.6,30.54,North,356,6.0,21.0,66,0.00,,---,0.00,VWS V14.01,2013-11-12 15:26:00,
2013-11-12 10:30:00,27.5,17.6,30.54,NNW,337,3.0,21.0,66,0.00,,---,0.00,VWS V14.01,2013-11-12 15:30:00,
2013-11-12 10:31:00,27.4,17.5,30.54,NNW,344,5.0,12.0,66,0.00,,---,0.00,VWS V14.01,2013-11-12 15:31:00,
2013-11-12 10:36:00,27.2,17.7,30.54,NNW,331,6.0,15.0,67,0.00,,---,0.00,VWS V14.01,2013-11-12 15:36:00,
2013-11-12 10:41:00,27.2,18.0,30.54,NNW,327,10.0,15.0,68,0.00,,---,0.00,VWS V14.01,2013-11-12 15:41:00,
2013-11-12 10:46:00,27.4,17.2,30.54,NNW,339,13.0,18.0,65,0.00,,---,0.00,VWS V14.01,2013-11-12 15:46:00,
2013-11-12 10:51:00,27.5,17.3,30.54,NNE,12,15.0,19.0,65,0.00,,---,0.00,VWS V14.01,2013-11-12 15:51:00,
2013-11-12 10:56:00,27.4,17.2,30.54,North,357,15.0,20.0,65,0.00,,---,0.00,VWS V14.01,2013-11-12 15:56:00,
2013-11-12 11:00:00,27.4,17.2,30.54,North,350,16.0,20.0,65,0.00,,---,0.00,VWS V14.01,2013-11-12 16:00:00,
2013-11-12 11:01:00,27.2,17.0,30.55,NNW,348,12.0,16.0,65,0.00,,---,0.00,VWS V14.01,2013-11-12 16:01:00,
2013-11-12 11:06:00,27.2,17.7,30.55,NNW,336,6.0,17.0,67,0.00,,---,0.00,VWS V14.01,2013-11-12 16:06:00,
2013-11-12 11:11:00,27.2,17.4,30.54,NNW,347,14.0,22.0,66,0.00,,---,0.00,VWS V14.01,2013-11-12 16:11:00,
2013-11-12 11:16:00,27.0,17.5,30.55,NNW,348,7.0,22.0,67,0.00,,---,0.00,VWS V14.01,2013-11-12 16:16:00,
2013-11-12 11:21:00,27.2,17.4,30.54,NW,326,10.0,22.0,66,0.00,,---,0.00,VWS V14.01,2013-11-12 16:21:00,
2013-11-12 11:26:00,27.3,16.8,30.54,NNE,22,7.0,22.0,64,0.00,,---,0.00,VWS V14.01,2013-11-12 16:26:00,
2013-11-12 11:30:00,27.4,16.8,30.54,North,5,2.0,22.0,64,0.00,,---,0.00,VWS V14.01,2013-11-12 16:30:00,
2013-11-12 11:31:00,27.3,16.8,30.54,NNW,343,10.0,12.0,64,0.00,,---,0.00,VWS V14.01,2013-11-12 16:31:00,
2013-11-12 11:36:00,27.5,17.3,30.54,WNW,302,10.0,12.0,65,0.00,,---,0.00,VWS V14.01,2013-11-12 16:36:00,
2013-11-12 11:41:00,27.5,17.3,30.54,North,9,8.0,15.0,65,0.00,,---,0.00,VWS V14.01,2013-11-12 16:41:00,
2013-11-12 11:46:00,27.2,18.0,30.54,NW,317,5.0,16.0,68,0.00,,---,0.00,VWS V14.01,2013-11-12 16:46:00,
2013-11-12 11:51:00,26.8,18.7,30.55,NW,317,11.0,16.0,71,0.00,,---,0.00,VWS V14.01,2013-11-12 16:51:00,
2013-11-12 11:56:00,26.3,18.8,30.54,North,349,7.0,16.0,73,0.00,,---,0.00,VWS V14.01,2013-11-12 16:56:00,
2013-11-12 12:00:00,26.2,19.4,30.54,WSW,237,2.0,16.0,75,0.00,,---,0.00,VWS V14.01,2013-11-12 17:00:00,
2013-11-12 12:01:00,26.0,19.2,30.54,NNE,16,4.0,14.0,75,0.00,,---,0.00,VWS V14.01,2013-11-12 17:01:00,
2013-11-12 12:06:00,25.9,19.4,30.54,NNW,340,7.0,14.0,76,0.00,,---,0.00,VWS V14.01,2013-11-12 17:06:00,
2013-11-12 12:11:00,25.9,20.0,30.54,North,5,7.0,14.0,78,0.00,,---,0.00,VWS V14.01,2013-11-12 17:11:00,
2013-11-12 12:16:00,25.8,20.2,30.54,North,351,4.0,14.0,79,0.00,,---,0.00,VWS V14.01,2013-11-12 17:16:00,
2013-11-12 12:21:00,25.9,20.0,30.54,NW,312,4.0,14.0,78,0.00,,---,0.00,VWS V14.01,2013-11-12 17:21:00,
2013-11-12 12:26:00,26.0,19.8,30.53,NNW,336,5.0,14.0,77,0.00,,---,0.00,VWS V14.01,2013-11-12 17:26:00,
2013-11-12 12:30:00,26.1,19.9,30.53,NNW,342,7.0,14.0,77,0.00,,---,0.00,VWS V14.01,2013-11-12 17:30:00,
2013-11-12 12:31:00,26.3,20.1,30.53,North,359,0.0,7.0,77,0.00,,---,0.00,VWS V14.01,2013-11-12 17:31:00,
2013-11-12 12:36:00,26.4,19.9,30.53,NNW,342,8.0,9.0,76,0.00,,---,0.00,VWS V14.01,2013-11-12 17:36:00,
2013-11-12 12:41:00,26.5,19.7,30.53,NW,317,6.0,11.0,75,0.00,,---,0.00,VWS V14.01,2013-11-12 17:41:00,
2013-11-12 12:46:00,26.3,19.5,30.53,NNW,333,5.0,13.0,75,0.00,,---,0.00,VWS V14.01,2013-11-12 17:46:00,
2013-11-12 12:52:00,26.5,19.4,30.53,North,350,1.0,13.0,74,0.00,,---,0.00,VWS V14.01,2013-11-12 17:52:00,
2013-11-12 12:57:00,26.7,18.6,30.53,NNW,327,6.0,13.0,71,0.00,,---,0.00,VWS V14.01,2013-11-12 17:57:00,
2013-11-12 13:00:00,26.9,18.8,30.53,NNW,345,4.0,13.0,71,0.00,,---,0.00,VWS V14.01,2013-11-12 18:00:00,
2013-11-12 13:02:00,26.9,18.8,30.53,NNW,344,6.0,14.0,71,0.00,,---,0.00,VWS V14.01,2013-11-12 18:02:00,
2013-11-12 13:07:00,27.0,18.9,30.53,North,352,8.0,14.0,71,0.00,,---,0.00,VWS V14.01,2013-11-12 18:07:00,
2013-11-12 13:12:00,27.0,18.9,30.53,NW,321,8.0,14.0,71,0.00,,---,0.00,VWS V14.01,2013-11-12 18:12:00,
2013-11-12 13:17:00,26.9,19.4,30.53,NW,317,3.0,14.0,73,0.00,,---,0.00,VWS V14.01,2013-11-12 18:17:00,
2013-11-12 13:22:00,26.9,19.1,30.53,NW,308,6.0,14.0,72,0.00,,---,0.00,VWS V14.01,2013-11-12 18:22:00,
2013-11-12 13:27:00,26.9,19.1,30.52,NW,308,2.0,14.0,72,0.00,,---,0.00,VWS V14.01,2013-11-12 18:27:00,
2013-11-12 13:30:00,26.9,19.1,30.53,NW,316,7.0,14.0,72,0.00,,---,0.00,VWS V14.01,2013-11-12 18:30:00,
2013-11-12 13:32:00,26.9,19.1,30.53,NW,311,2.0,10.0,72,0.00,,---,0.00,VWS V14.01,2013-11-12 18:32:00,
2013-11-12 13:37:00,27.0,19.2,30.52,NNW,340,6.0,10.0,72,0.00,,---,0.00,VWS V14.01,2013-11-12 18:37:00,
2013-11-12 13:42:00,27.4,19.2,30.52,North,11,9.0,11.0,71,0.00,,---,0.00,VWS V14.01,2013-11-12 18:42:00,
2013-11-12 13:47:00,27.4,18.6,30.52,North,358,5.0,13.0,69,0.00,,---,0.00,VWS V14.01,2013-11-12 18:47:00,
2013-11-12 13:52:00,27.5,19.0,30.52,NNW,332,6.0,17.0,70,0.00,,---,0.00,VWS V14.01,2013-11-12 18:52:00,
2013-11-12 13:57:00,27.7,18.9,30.52,NW,315,7.0,17.0,69,0.00,,---,0.00,VWS V14.01,2013-11-12 18:57:00,
2013-11-12 14:00:00,27.7,18.9,30.52,NW,320,4.0,17.0,69,0.00,,---,0.00,VWS V14.01,2013-11-12 19:00:00,
2013-11-12 14:02:00,27.6,18.4,30.52,NNW,334,11.0,11.0,68,0.00,,---,0.00,VWS V14.01,2013-11-12 19:02:00,
2013-11-12 14:07:00,27.6,17.7,30.52,NNW,343,5.0,17.0,66,0.00,,---,0.00,VWS V14.01,2013-11-12 19:07:00,
2013-11-12 14:12:00,27.8,17.9,30.52,WNW,296,7.0,17.0,66,0.00,,---,0.00,VWS V14.01,2013-11-12 19:12:00,
2013-11-12 14:17:00,27.8,17.6,30.52,North,353,8.0,17.0,65,0.00,,---,0.00,VWS V14.01,2013-11-12 19:17:00,
2013-11-12 14:22:00,27.9,17.7,30.52,NNW,348,11.0,17.0,65,0.00,,---,0.00,VWS V14.01,2013-11-12 19:22:00,
2013-11-12 14:27:00,28.0,18.1,30.52,WNW,289,6.0,17.0,66,0.00,,---,0.00,VWS V14.01,2013-11-12 19:27:00,
2013-11-12 14:30:00,27.8,17.6,30.52,NNE,28,8.0,17.0,65,0.00,,---,0.00,VWS V14.01,2013-11-12 19:30:00,
2013-11-12 14:32:00,27.9,17.7,30.52,NNE,17,6.0,11.0,65,0.00,,---,0.00,VWS V14.01,2013-11-12 19:32:00,
2013-11-12 14:37:00,28.0,17.8,30.52,NNW,346,4.0,14.0,65,0.00,,---,0.00,VWS V14.01,2013-11-12 19:37:00,
2013-11-12 14:42:00,27.9,17.3,30.52,North,349,9.0,15.0,64,0.00,,---,0.00,VWS V14.01,2013-11-12 19:42:00,
2013-11-12 14:47:00,28.0,17.8,30.52,NNW,339,5.0,17.0,65,0.00,,---,0.00,VWS V14.01,2013-11-12 19:47:00,
2013-11-12 14:52:00,28.1,17.9,30.51,North,359,10.0,17.0,65,0.00,,---,0.00,VWS V14.01,2013-11-12 19:52:00,
2013-11-12 14:57:00,28.1,17.9,30.51,North,352,3.0,17.0,65,0.00,,---,0.00,VWS V14.01,2013-11-12 19:57:00,
2013-11-12 15:00:00,28.1,17.9,30.51,NNW,330,7.0,17.0,65,0.00,,---,0.00,VWS V14.01,2013-11-12 20:00:00,
2013-11-12 15:02:00,28.2,18.7,30.51,NNW,341,5.0,11.0,67,0.00,,---,0.00,VWS V14.01,2013-11-12 20:02:00,
2013-11-12 15:07:00,28.1,18.6,30.51,NNW,343,3.0,14.0,67,0.00,,---,0.00,VWS V14.01,2013-11-12 20:07:00,
2013-11-12 15:12:00,28.1,18.6,30.51,NNW,346,9.0,14.0,67,0.00,,---,0.00,VWS V14.01,2013-11-12 20:12:00,
2013-11-12 15:17:00,28.1,18.9,30.51,North,349,7.0,14.0,68,0.00,,---,0.00,VWS V14.01,2013-11-12 20:17:00,
2013-11-12 15:22:00,27.9,18.7,30.51,NW,315,4.0,14.0,68,0.00,,---,0.00,VWS V14.01,2013-11-12 20:22:00,
2013-11-12 15:27:00,28.0,18.8,30.51,NW,318,3.0,14.0,68,0.00,,---,0.00,VWS V14.01,2013-11-12 20:27:00,
2013-11-12 15:30:00,28.0,18.5,30.51,NNW,333,2.0,14.0,67,0.00,,---,0.00,VWS V14.01,2013-11-12 20:30:00,
2013-11-12 15:33:00,27.9,18.0,30.51,NW,319,4.0,11.0,66,0.00,,---,0.00,VWS V14.01,2013-11-12 20:33:00,
2013-11-12 15:38:00,27.9,17.7,30.51,NW,308,7.0,11.0,65,0.00,,---,0.00,VWS V14.01,2013-11-12 20:38:00,
2013-11-12 15:43:00,28.1,18.2,30.51,NW,316,8.0,14.0,66,0.00,,---,0.00,VWS V14.01,2013-11-12 20:43:00,
2013-11-12 15:48:00,28.1,18.2,30.51,North,350,5.0,14.0,66,0.00,,---,0.00,VWS V14.01,2013-11-12 20:48:00,
2013-11-12 15:53:00,28.1,17.9,30.51,NW,326,6.0,14.0,65,0.00,,---,0.00,VWS V14.01,2013-11-12 20:53:00,
2013-11-12 15:58:00,28.1,17.9,30.51,NW,312,4.0,14.0,65,0.00,,---,0.00,VWS V14.01,2013-11-12 20:58:00,
2013-11-12 16:00:00,28.1,17.9,30.51,NW,320,2.0,14.0,65,0.00,,---,0.00,VWS V14.01,2013-11-12 21:00:00,
2013-11-12 16:03:00,28.1,17.9,30.51,WNW,293,3.0,9.0,65,0.00,,---,0.00,VWS V14.01,2013-11-12 21:03:00,
2013-11-12 16:08:00,28.1,17.9,30.50,NNW,336,3.0,9.0,65,0.00,,---,0.00,VWS V14.01,2013-11-12 21:08:00,
2013-11-12 16:13:00,28.0,17.4,30.51,NW,305,8.0,9.0,64,0.00,,---,0.00,VWS V14.01,2013-11-12 21:13:00,
2013-11-12 16:18:00,27.9,17.3,30.50,West,267,5.0,9.0,64,0.00,,---,0.00,VWS V14.01,2013-11-12 21:18:00,
2013-11-12 16:23:00,27.9,17.0,30.50,WNW,298,3.0,9.0,63,0.00,,---,0.00,VWS V14.01,2013-11-12 21:23:00,
2013-11-12 16:28:00,28.1,17.5,30.51,NW,307,4.0,9.0,64,0.00,,---,0.00,VWS V14.01,2013-11-12 21:28:00,
2013-11-12 16:30:00,28.1,17.5,30.50,WNW,300,6.0,13.0,64,0.00,,---,0.00,VWS V14.01,2013-11-12 21:30:00,
2013-11-12 16:33:00,28.1,17.1,30.50,NW,316,1.0,6.0,63,0.00,,---,0.00,VWS V14.01,2013-11-12 21:33:00,
2013-11-12 16:38:00,28.1,17.1,30.50,NNW,329,6.0,7.0,63,0.00,,---,0.00,VWS V14.01,2013-11-12 21:38:00,
2013-11-12 16:43:00,28.1,17.5,30.50,NNW,337,0.0,12.0,64,0.00,,---,0.00,VWS V14.01,2013-11-12 21:43:00,
2013-11-12 16:48:00,28.1,17.1,30.50,WNW,292,2.0,12.0,63,0.00,,---,0.00,VWS V14.01,2013-11-12 21:48:00,
2013-11-12 16:53:00,28.1,17.1,30.51,NW,319,2.0,12.0,63,0.00,,---,0.00,VWS V14.01,2013-11-12 21:53:00,
2013-11-12 16:58:00,28.1,17.1,30.51,WNW,293,4.0,12.0,63,0.00,,---,0.00,VWS V14.01,2013-11-12 21:58:00,
2013-11-12 17:00:00,28.1,17.1,30.51,NNW,330,3.0,12.0,63,0.00,,---,0.00,VWS V14.01,2013-11-12 22:00:00,
2013-11-12 17:03:00,28.1,17.1,30.51,WNW,285,3.0,7.0,63,0.00,,---,0.00,VWS V14.01,2013-11-12 22:03:00,
2013-11-12 17:08:00,28.1,16.8,30.51,NNW,334,7.0,11.0,62,0.00,,---,0.00,VWS V14.01,2013-11-12 22:08:00,
2013-11-12 17:13:00,28.1,16.8,30.51,NW,316,2.0,11.0,62,0.00,,---,0.00,VWS V14.01,2013-11-12 22:13:00,
2013-11-12 17:18:00,28.1,16.8,30.51,WNW,296,4.0,11.0,62,0.00,,---,0.00,VWS V14.01,2013-11-12 22:18:00,
2013-11-12 17:23:00,28.1,16.8,30.52,NW,305,1.0,11.0,62,0.00,,---,0.00,VWS V14.01,2013-11-12 22:23:00,
2013-11-12 17:28:00,28.1,16.8,30.51,NNW,330,4.0,11.0,62,0.00,,---,0.00,VWS V14.01,2013-11-12 22:28:00,
2013-11-12 17:30:00,28.1,16.8,30.51,NNW,330,0.0,11.0,62,0.00,,---,0.00,VWS V14.01,2013-11-12 22:30:00,
2013-11-12 17:33:00,28.1,16.8,30.51,NW,311,4.0,5.0,62,0.00,,---,0.00,VWS V14.01,2013-11-12 22:33:00,
2013-11-12 17:38:00,28.0,16.7,30.51,NNW,348,2.0,5.0,62,0.00,,---,0.00,VWS V14.01,2013-11-12 22:38:00,
2013-11-12 17:43:00,28.0,16.7,30.51,NNW,348,2.0,5.0,62,0.00,,---,0.00,VWS V14.01,2013-11-12 22:43:00,
2013-11-12 17:48:00,27.9,16.6,30.51,NNW,348,0.0,5.0,62,0.00,,---,0.00,VWS V14.01,2013-11-12 22:48:00,
2013-11-12 17:53:00,27.8,16.9,30.51,NNW,348,2.0,5.0,63,0.00,,---,0.00,VWS V14.01,2013-11-12 22:53:00,
2013-11-12 17:58:00,27.8,17.2,30.51,NW,320,5.0,5.0,64,0.00,,---,0.00,VWS V14.01,2013-11-12 22:58:00,
2013-11-12 18:00:00,27.8,16.9,30.51,NNW,333,2.0,5.0,63,0.00,,---,0.00,VWS V14.01,2013-11-12 23:00:00,
2013-11-12 18:03:00,27.9,17.3,30.51,WNW,301,3.0,4.0,64,0.00,,---,0.00,VWS V14.01,2013-11-12 23:03:00,
2013-11-12 18:08:00,27.9,17.7,30.51,WNW,301,1.0,4.0,65,0.00,,---,0.00,VWS V14.01,2013-11-12 23:08:00,
2013-11-12 18:13:00,28.0,17.0,30.51,WNW,287,0.0,5.0,63,0.00,,---,0.00,VWS V14.01,2013-11-12 23:13:00,
2013-11-12 18:18:00,28.0,17.0,30.51,NW,322,0.0,6.0,63,0.00,,---,0.00,VWS V14.01,2013-11-12 23:18:00,
2013-11-12 18:24:00,27.9,17.0,30.50,NNW,344,1.0,6.0,63,0.00,,---,0.00,VWS V14.01,2013-11-12 23:24:00,
2013-11-12 18:29:00,28.1,17.1,30.50,NNW,327,3.0,6.0,63,0.00,,---,0.00,VWS V14.01,2013-11-12 23:29:00,
2013-11-12 18:30:00,28.1,17.1,30.50,NNW,327,2.0,6.0,63,0.00,,---,0.00,VWS V14.01,2013-11-12 23:30:00,
2013-11-12 18:34:00,28.1,17.1,30.50,NNW,327,1.0,5.0,63,0.00,,---,0.00,VWS V14.01,2013-11-12 23:34:00,
2013-11-12 18:39:00,28.1,17.1,30.50,NNW,327,1.0,5.0,63,0.00,,---,0.00,VWS V14.01,2013-11-12 23:39:00,
2013-11-12 18:44:00,27.9,17.0,30.49,NNW,327,2.0,5.0,63,0.00,,---,0.00,VWS V14.01,2013-11-12 23:44:00,
2013-11-12 18:49:00,27.9,17.3,30.49,WNW,282,1.0,6.0,64,0.00,,---,0.00,VWS V14.01,2013-11-12 23:49:00,
2013-11-12 18:54:00,28.0,17.0,30.49,WNW,282,0.0,6.0,63,0.00,,---,0.00,VWS V14.01,2013-11-12 23:54:00,
2013-11-12 18:59:00,27.9,17.0,30.49,WNW,282,0.0,6.0,63,0.00,,---,0.00,VWS V14.01,2013-11-12 23:59:00,
2013-11-12 19:00:00,27.9,17.0,30.49,WNW,282,0.0,6.0,63,0.00,,---,0.00,VWS V14.01,2013-11-13 00:00:00,
2013-11-12 19:04:00,27.9,17.0,30.49,WNW,282,0.0,2.0,63,0.00,,---,0.00,VWS V14.01,2013-11-13 00:04:00,
2013-11-12 19:09:00,27.8,16.9,30.49,WNW,282,0.0,3.0,63,0.00,,---,0.00,VWS V14.01,2013-11-13 00:09:00,
2013-11-12 19:14:00,27.6,16.7,30.49,WNW,282,0.0,3.0,63,0.00,,---,0.00,VWS V14.01,2013-11-13 00:14:00,
2013-11-12 19:19:00,27.7,16.8,30.49,WNW,282,1.0,3.0,63,0.00,,---,0.00,VWS V14.01,2013-11-13 00:19:00,
2013-11-12 19:24:00,27.7,17.1,30.48,WNW,282,1.0,3.0,64,0.00,,---,0.00,VWS V14.01,2013-11-13 00:24:00,
2013-11-12 19:29:00,27.5,17.3,30.48,WNW,282,2.0,4.0,65,0.00,,---,0.00,VWS V14.01,2013-11-13 00:29:00,
2013-11-12 19:30:00,27.5,17.3,30.48,WNW,282,1.0,4.0,65,0.00,,---,0.00,VWS V14.01,2013-11-13 00:30:00,
2013-11-12 19:34:00,27.7,17.5,30.48,WNW,282,3.0,3.0,65,0.00,,---,0.00,VWS V14.01,2013-11-13 00:34:00,
2013-11-12 19:39:00,27.6,17.4,30.48,WNW,282,2.0,3.0,65,0.00,,---,0.00,VWS V14.01,2013-11-13 00:39:00,
2013-11-12 19:44:00,27.6,17.4,30.48,WNW,282,2.0,3.0,65,0.00,,---,0.00,VWS V14.01,2013-11-13 00:44:00,
2013-11-12 19:49:00,27.5,17.3,30.47,WNW,282,0.0,3.0,65,0.00,,---,0.00,VWS V14.01,2013-11-13 00:49:00,
2013-11-12 19:54:00,27.5,17.3,30.47,WNW,282,2.0,3.0,65,0.00,,---,0.00,VWS V14.01,2013-11-13 00:54:00,
2013-11-12 19:59:00,27.5,17.3,30.47,WNW,282,0.0,3.0,65,0.00,,---,0.00,VWS V14.01,2013-11-13 00:59:00,
2013-11-12 20:00:00,27.5,17.3,30.48,WNW,282,0.0,3.0,65,0.00,,---,0.00,VWS V14.01,2013-11-13 01:00:00,
2013-11-12 20:04:00,27.4,17.5,30.48,WNW,282,0.0,3.0,66,0.00,,---,0.00,VWS V14.01,2013-11-13 01:04:00,
2013-11-12 20:09:00,27.4,17.9,30.47,WNW,282,0.0,3.0,67,0.00,,---,0.00,VWS V14.01,2013-11-13 01:09:00,
2013-11-12 20:14:00,27.4,17.5,30.47,WNW,282,0.0,3.0,66,0.00,,---,0.00,VWS V14.01,2013-11-13 01:14:00,
2013-11-12 20:19:00,27.4,17.9,30.47,WNW,282,3.0,4.0,67,0.00,,---,0.00,VWS V14.01,2013-11-13 01:19:00,
2013-11-12 20:24:00,27.2,17.4,30.47,WNW,282,1.0,4.0,66,0.00,,---,0.00,VWS V14.01,2013-11-13 01:24:00,
2013-11-12 20:29:00,27.3,17.8,30.47,South,178,1.0,5.0,67,0.00,,---,0.00,VWS V14.01,2013-11-13 01:29:00,
2013-11-12 20:30:00,27.4,17.9,30.47,South,178,0.0,5.0,67,0.00,,---,0.00,VWS V14.01,2013-11-13 01:30:00,
2013-11-12 20:34:00,27.3,17.8,30.47,South,178,1.0,4.0,67,0.00,,---,0.00,VWS V14.01,2013-11-13 01:34:00,
2013-11-12 20:39:00,27.2,17.7,30.46,South,178,0.0,4.0,67,0.00,,---,0.00,VWS V14.01,2013-11-13 01:39:00,
2013-11-12 20:44:00,27.4,17.9,30.46,West,266,0.0,7.0,67,0.00,,---,0.00,VWS V14.01,2013-11-13 01:44:00,
2013-11-12 20:49:00,27.5,18.0,30.46,West,265,2.0,7.0,67,0.00,,---,0.00,VWS V14.01,2013-11-13 01:49:00,
2013-11-12 20:54:00,27.7,18.2,30.46,West,265,2.0,7.0,67,0.00,,---,0.00,VWS V14.01,2013-11-13 01:54:00,
2013-11-12 20:59:00,27.8,18.3,30.46,West,265,2.0,7.0,67,0.00,,---,0.00,VWS V14.01,2013-11-13 01:59:00,
2013-11-12 21:00:00,27.8,18.3,30.46,West,265,1.0,7.0,67,0.00,,---,0.00,VWS V14.01,2013-11-13 02:00:00,
2013-11-12 21:04:00,28.1,18.6,30.46,West,265,2.0,5.0,67,0.00,,---,0.00,VWS V14.01,2013-11-13 02:04:00,
2013-11-12 21:09:00,28.2,18.7,30.46,West,266,1.0,5.0,67,0.00,,---,0.00,VWS V14.01,2013-11-13 02:09:00,
2013-11-12 21:14:00,28.4,18.9,30.46,WSW,246,3.0,6.0,67,0.00,,---,0.00,VWS V14.01,2013-11-13 02:14:00,
2013-11-12 21:19:00,28.5,19.0,30.46,WNW,303,2.0,6.0,67,0.00,,---,0.00,VWS V14.01,2013-11-13 02:19:00,
2013-11-12 21:24:00,28.8,18.9,30.46,West,271,3.0,8.0,66,0.00,,---,0.00,VWS V14.01,2013-11-13 02:24:00,
2013-11-12 21:30:00,29.1,19.2,30.46,West,265,6.0,8.0,66,0.00,,---,0.00,VWS V14.01,2013-11-13 02:30:00,
2013-11-12 21:35:00,29.3,19.4,30.45,WNW,298,3.0,7.0,66,0.00,,---,0.00,VWS V14.01,2013-11-13 02:35:00,
2013-11-12 21:40:00,29.4,19.5,30.45,WNW,289,0.0,9.0,66,0.00,,---,0.00,VWS V14.01,2013-11-13 02:40:00,
2013-11-12 21:45:00,29.4,19.5,30.45,WSW,250,0.0,9.0,66,0.00,,---,0.00,VWS V14.01,2013-11-13 02:45:00,
2013-11-12 21:50:00,29.6,19.3,30.45,WNW,287,5.0,9.0,65,0.00,,---,0.00,VWS V14.01,2013-11-13 02:50:00,
2013-11-12 21:55:00,29.7,19.4,30.44,WSW,254,8.0,9.0,65,0.00,,---,0.00,VWS V14.01,2013-11-13 02:55:00,
2013-11-12 22:00:00,30.0,19.3,30.44,West,277,5.0,5.0,64,0.00,,---,0.00,VWS V14.01,2013-11-13 03:00:00,
2013-11-12 22:05:00,30.0,19.3,30.44,West,280,1.0,7.0,64,0.00,,---,0.00,VWS V14.01,2013-11-13 03:05:00,
2013-11-12 22:10:00,30.0,19.3,30.44,WSW,256,1.0,7.0,64,0.00,,---,0.00,VWS V14.01,2013-11-13 03:10:00,
2013-11-12 22:15:00,29.9,19.2,30.44,WSW,252,5.0,7.0,64,0.00,,---,0.00,VWS V14.01,2013-11-13 03:15:00,
2013-11-12 22:20:00,29.9,19.2,30.45,West,277,1.0,7.0,64,0.00,,---,0.00,VWS V14.01,2013-11-13 03:20:00,
2013-11-12 22:25:00,29.6,18.9,30.44,WSW,254,0.0,7.0,64,0.00,,---,0.00,VWS V14.01,2013-11-13 03:25:00,
2013-11-12 22:30:00,29.3,18.6,30.44,WSW,255,1.0,1.0,64,0.00,,---,0.00,VWS V14.01,2013-11-13 03:30:00,
2013-11-12 22:35:00,29.1,18.8,30.44,WSW,255,0.0,2.0,65,0.00,,---,0.00,VWS V14.01,2013-11-13 03:35:00,
2013-11-12 22:40:00,28.8,18.5,30.44,WSW,254,1.0,3.0,65,0.00,,---,0.00,VWS V14.01,2013-11-13 03:40:00,
2013-11-12 22:45:00,28.7,18.4,30.44,WSW,254,2.0,3.0,65,0.00,,---,0.00,VWS V14.01,2013-11-13 03:45:00,
2013-11-12 22:50:00,28.5,17.9,30.43,WSW,255,2.0,3.0,64,0.00,,---,0.00,VWS V14.01,2013-11-13 03:50:00,
2013-11-12 22:55:00,28.4,17.8,30.43,WSW,254,2.0,4.0,64,0.00,,---,0.00,VWS V14.01,2013-11-13 03:55:00,
2013-11-12 23:00:00,28.4,17.8,30.44,WSW,254,1.0,2.0,64,0.00,,---,0.00,VWS V14.01,2013-11-13 04:00:00,
2013-11-12 23:05:00,28.4,17.8,30.43,WSW,254,0.0,3.0,64,0.00,,---,0.00,VWS V14.01,2013-11-13 04:05:00,
2013-11-12 23:10:00,28.1,17.5,30.43,WSW,255,0.0,3.0,64,0.00,,---,0.00,VWS V14.01,2013-11-13 04:10:00,
2013-11-12 23:15:00,27.9,17.3,30.43,WSW,255,1.0,3.0,64,0.00,,---,0.00,VWS V14.01,2013-11-13 04:15:00,
2013-11-12 23:20:00,27.7,17.5,30.43,WSW,254,1.0,3.0,65,0.00,,---,0.00,VWS V14.01,2013-11-13 04:20:00,
2013-11-12 23:25:00,27.5,16.9,30.43,WSW,255,0.0,3.0,64,0.00,,---,0.00,VWS V14.01,2013-11-13 04:25:00,
2013-11-12 23:30:00,27.2,17.0,30.43,WSW,255,1.0,2.0,65,0.00,,---,0.00,VWS V14.01,2013-11-13 04:30:00,
2013-11-12 23:35:00,27.2,16.6,30.43,WSW,255,1.0,4.0,64,0.00,,---,0.00,VWS V14.01,2013-11-13 04:35:00,
2013-11-12 23:40:00,27.0,16.8,30.43,WSW,255,2.0,4.0,65,0.00,,---,0.00,VWS V14.01,2013-11-13 04:40:00,
2013-11-12 23:45:00,26.6,16.8,30.43,WSW,255,2.0,4.0,66,0.00,,---,0.00,VWS V14.01,2013-11-13 04:45:00,
2013-11-12 23:50:00,26.6,16.8,30.43,WSW,254,1.0,4.0,66,0.00,,---,0.00,VWS V14.01,2013-11-13 04:50:00,
2013-11-12 23:55:00,26.6,17.1,30.43,WSW,255,1.0,4.0,67,0.00,,---,0.00,VWS V14.01,2013-11-13 04:55:00,